sensor_id;sensor_type;location;lat;lon;timestamp;temperature;humidity
1578;DHT22;57623;53.608;10.004;2022-09-09T00:00:33;14.50;99.90
1578;DHT22;57623;53.608;10.004;2022-09-09T00:03:54;14.60;99.90
1578;DHT22;57623;53.608;10.004;2022-09-09T00:14:00;14.60;99.90
1578;DHT22;57623;53.608;10.004;2022-09-09T00:17:12;14.60;99.90
1578;DHT22;57623;53.608;10.004;2022-09-09T00:20:13;14.60;99.90
1578;DHT22;57623;53.608;10.004;2022-09-09T00:23:39;14.70;99.90
1578;DHT22;57623;53.608;10.004;2022-09-09T00:26:44;14.70;99.90
1578;DHT22;57623;53.608;10.004;2022-09-09T00:29:47;14.70;99.90
1578;DHT22;57623;53.608;10.004;2022-09-09T00:32:59;14.70;99.90
1578;DHT22;57623;53.608;10.004;2022-09-09T00:36:16;14.80;99.90
1578;DHT22;57623;53.608;10.004;2022-09-09T00:39:36;14.80;99.90
1578;DHT22;57623;53.608;10.004;2022-09-09T00:42:58;14.80;99.90
1578;DHT22;57623;53.608;10.004;2022-09-09T00:50:02;14.90;99.90
1578;DHT22;57623;53.608;10.004;2022-09-09T00:53:23;14.90;99.90
1578;DHT22;57623;53.608;10.004;2022-09-09T00:56:40;15.00;99.90
1578;DHT22;57623;53.608;10.004;2022-09-09T00:59:50;15.00;99.90
1578;DHT22;57623;53.608;10.004;2022-09-09T01:03:18;15.00;99.90
1578;DHT22;57623;53.608;10.004;2022-09-09T01:07:01;15.00;99.90
1578;DHT22;57623;53.608;10.004;2022-09-09T01:10:30;15.00;99.90
1578;DHT22;57623;53.608;10.004;2022-09-09T01:13:55;15.10;99.90
1578;DHT22;57623;53.608;10.004;2022-09-09T01:17:19;15.10;99.90
1578;DHT22;57623;53.608;10.004;2022-09-09T01:20:41;15.20;99.90
1578;DHT22;57623;53.608;10.004;2022-09-09T01:24:01;15.20;99.90
1578;DHT22;57623;53.608;10.004;2022-09-09T01:27:09;15.20;99.90
1578;DHT22;57623;53.608;10.004;2022-09-09T01:30:25;15.20;99.90
1578;DHT22;57623;53.608;10.004;2022-09-09T01:33:22;15.20;99.90
1578;DHT22;57623;53.608;10.004;2022-09-09T01:36:31;15.20;99.90
1578;DHT22;57623;53.608;10.004;2022-09-09T01:40:00;15.20;99.90
1578;DHT22;57623;53.608;10.004;2022-09-09T01:43:08;15.20;99.90
1578;DHT22;57623;53.608;10.004;2022-09-09T01:46:17;15.20;99.90
1578;DHT22;57623;53.608;10.004;2022-09-09T01:49:24;15.20;99.90
1578;DHT22;57623;53.608;10.004;2022-09-09T01:52:40;15.20;99.90
1578;DHT22;57623;53.608;10.004;2022-09-09T01:56:11;15.20;99.90
1578;DHT22;57623;53.608;10.004;2022-09-09T01:59:42;15.20;99.90
1578;DHT22;57623;53.608;10.004;2022-09-09T02:03:14;15.20;99.90
1578;DHT22;57623;53.608;10.004;2022-09-09T02:06:34;15.10;99.90
1578;DHT22;57623;53.608;10.004;2022-09-09T02:09:35;15.10;99.90
1578;DHT22;57623;53.608;10.004;2022-09-09T02:12:45;15.10;99.90
1578;DHT22;57623;53.608;10.004;2022-09-09T02:15:56;15.10;99.90
1578;DHT22;57623;53.608;10.004;2022-09-09T02:19:11;15.10;99.90
1578;DHT22;57623;53.608;10.004;2022-09-09T02:22:11;15.00;99.90
1578;DHT22;57623;53.608;10.004;2022-09-09T02:25:28;15.00;99.90
1578;DHT22;57623;53.608;10.004;2022-09-09T02:28:35;15.00;99.90
1578;DHT22;57623;53.608;10.004;2022-09-09T02:31:40;15.00;99.90
1578;DHT22;57623;53.608;10.004;2022-09-09T02:34:52;15.00;99.90
1578;DHT22;57623;53.608;10.004;2022-09-09T02:38:09;15.00;99.90
1578;DHT22;57623;53.608;10.004;2022-09-09T02:41:06;15.00;99.90
1578;DHT22;57623;53.608;10.004;2022-09-09T02:44:09;15.00;99.90
1578;DHT22;57623;53.608;10.004;2022-09-09T02:47:33;14.90;99.90
1578;DHT22;57623;53.608;10.004;2022-09-09T02:50:35;14.90;99.90
1578;DHT22;57623;53.608;10.004;2022-09-09T02:53:59;14.90;99.90
1578;DHT22;57623;53.608;10.004;2022-09-09T02:57:28;14.90;99.90
1578;DHT22;57623;53.608;10.004;2022-09-09T03:00:32;14.90;99.90
1578;DHT22;57623;53.608;10.004;2022-09-09T03:03:46;14.90;99.90
1578;DHT22;57623;53.608;10.004;2022-09-09T03:07:01;14.90;99.90
1578;DHT22;57623;53.608;10.004;2022-09-09T03:10:21;14.80;99.90
1578;DHT22;57623;53.608;10.004;2022-09-09T03:13:31;14.90;99.90
1578;DHT22;57623;53.608;10.004;2022-09-09T03:17:03;14.90;99.90
1578;DHT22;57623;53.608;10.004;2022-09-09T03:23:56;14.80;99.90
1578;DHT22;57623;53.608;10.004;2022-09-09T03:27:24;14.80;99.90
1578;DHT22;57623;53.608;10.004;2022-09-09T03:30:34;14.80;99.90
1578;DHT22;57623;53.608;10.004;2022-09-09T03:33:34;14.80;99.90
1578;DHT22;57623;53.608;10.004;2022-09-09T03:36:36;14.80;99.90
1578;DHT22;57623;53.608;10.004;2022-09-09T03:40:07;14.70;99.90
1578;DHT22;57623;53.608;10.004;2022-09-09T03:43:18;14.70;99.90
1578;DHT22;57623;53.608;10.004;2022-09-09T03:46:33;14.70;99.90
1578;DHT22;57623;53.608;10.004;2022-09-09T03:49:34;14.70;99.90
1578;DHT22;57623;53.608;10.004;2022-09-09T03:52:56;14.70;99.90
1578;DHT22;57623;53.608;10.004;2022-09-09T03:55:57;14.60;99.90
1578;DHT22;57623;53.608;10.004;2022-09-09T03:59:34;14.60;99.90
1578;DHT22;57623;53.608;10.004;2022-09-09T04:02:28;14.60;99.90
1578;DHT22;57623;53.608;10.004;2022-09-09T04:05:36;14.60;99.90
1578;DHT22;57623;53.608;10.004;2022-09-09T04:08:36;14.70;99.90
1578;DHT22;57623;53.608;10.004;2022-09-09T04:12:01;14.70;99.90
1578;DHT22;57623;53.608;10.004;2022-09-09T04:15:26;14.60;99.90
1578;DHT22;57623;53.608;10.004;2022-09-09T04:18:39;14.70;99.90
1578;DHT22;57623;53.608;10.004;2022-09-09T04:21:44;14.60;99.90
1578;DHT22;57623;53.608;10.004;2022-09-09T04:25:18;14.60;99.90
1578;DHT22;57623;53.608;10.004;2022-09-09T04:28:28;14.60;99.90
1578;DHT22;57623;53.608;10.004;2022-09-09T04:32:07;14.60;99.90
1578;DHT22;57623;53.608;10.004;2022-09-09T04:35:22;14.50;99.90
1578;DHT22;57623;53.608;10.004;2022-09-09T04:38:28;14.50;99.90
1578;DHT22;57623;53.608;10.004;2022-09-09T04:41:26;14.50;99.90
1578;DHT22;57623;53.608;10.004;2022-09-09T04:44:26;14.50;99.90
1578;DHT22;57623;53.608;10.004;2022-09-09T04:47:48;14.50;99.90
1578;DHT22;57623;53.608;10.004;2022-09-09T04:50:53;14.50;99.90
1578;DHT22;57623;53.608;10.004;2022-09-09T04:53:48;14.50;99.90
1578;DHT22;57623;53.608;10.004;2022-09-09T04:56:42;14.50;99.90
1578;DHT22;57623;53.608;10.004;2022-09-09T04:59:40;14.50;99.90
1578;DHT22;57623;53.608;10.004;2022-09-09T05:02:42;14.50;99.90
1578;DHT22;57623;53.608;10.004;2022-09-09T05:05:40;14.50;99.90
1578;DHT22;57623;53.608;10.004;2022-09-09T05:08:44;14.50;99.90
1578;DHT22;57623;53.608;10.004;2022-09-09T05:11:57;14.50;99.90
1578;DHT22;57623;53.608;10.004;2022-09-09T05:15:07;14.60;99.90
1578;DHT22;57623;53.608;10.004;2022-09-09T05:18:27;14.50;99.90
1578;DHT22;57623;53.608;10.004;2022-09-09T05:21:49;14.60;99.90
1578;DHT22;57623;53.608;10.004;2022-09-09T05:24:59;14.60;99.90
1578;DHT22;57623;53.608;10.004;2022-09-09T05:27:51;14.60;99.90
1578;DHT22;57623;53.608;10.004;2022-09-09T05:30:44;14.60;99.90
1578;DHT22;57623;53.608;10.004;2022-09-09T05:33:33;14.60;99.90
1578;DHT22;57623;53.608;10.004;2022-09-09T05:36:27;14.50;99.90
1578;DHT22;57623;53.608;10.004;2022-09-09T05:39:22;14.60;99.90
1578;DHT22;57623;53.608;10.004;2022-09-09T05:42:10;14.50;99.90
1578;DHT22;57623;53.608;10.004;2022-09-09T05:45:07;14.60;99.90
1578;DHT22;57623;53.608;10.004;2022-09-09T05:48:02;14.60;99.90
1578;DHT22;57623;53.608;10.004;2022-09-09T05:50:53;14.60;99.90
1578;DHT22;57623;53.608;10.004;2022-09-09T05:53:46;14.60;99.90
1578;DHT22;57623;53.608;10.004;2022-09-09T05:56:37;14.60;99.90
1578;DHT22;57623;53.608;10.004;2022-09-09T05:59:33;14.70;99.90
1578;DHT22;57623;53.608;10.004;2022-09-09T06:02:32;14.70;99.90
1578;DHT22;57623;53.608;10.004;2022-09-09T06:05:22;14.70;99.90
1578;DHT22;57623;53.608;10.004;2022-09-09T06:08:14;14.70;99.90
1578;DHT22;57623;53.608;10.004;2022-09-09T06:11:05;14.80;99.90
1578;DHT22;57623;53.608;10.004;2022-09-09T06:13:53;14.80;99.90
1578;DHT22;57623;53.608;10.004;2022-09-09T06:16:41;14.90;99.90
1578;DHT22;57623;53.608;10.004;2022-09-09T06:19:31;14.90;99.90
1578;DHT22;57623;53.608;10.004;2022-09-09T06:22:23;14.90;99.90
1578;DHT22;57623;53.608;10.004;2022-09-09T06:25:11;14.90;99.90
1578;DHT22;57623;53.608;10.004;2022-09-09T06:27:59;14.90;99.90
1578;DHT22;57623;53.608;10.004;2022-09-09T06:30:47;15.00;99.90
1578;DHT22;57623;53.608;10.004;2022-09-09T06:33:36;15.00;99.90
1578;DHT22;57623;53.608;10.004;2022-09-09T06:36:29;14.90;99.90
1578;DHT22;57623;53.608;10.004;2022-09-09T06:39:19;15.00;99.90
1578;DHT22;57623;53.608;10.004;2022-09-09T06:42:08;15.00;99.90
1578;DHT22;57623;53.608;10.004;2022-09-09T06:44:56;15.00;99.90
1578;DHT22;57623;53.608;10.004;2022-09-09T06:47:45;15.00;99.90
1578;DHT22;57623;53.608;10.004;2022-09-09T06:50:34;15.10;99.90
1578;DHT22;57623;53.608;10.004;2022-09-09T06:53:22;15.10;99.90
1578;DHT22;57623;53.608;10.004;2022-09-09T06:56:30;15.10;99.90
1578;DHT22;57623;53.608;10.004;2022-09-09T06:59:19;15.10;99.90
1578;DHT22;57623;53.608;10.004;2022-09-09T07:02:09;15.10;99.90
1578;DHT22;57623;53.608;10.004;2022-09-09T07:04:58;15.20;99.90
1578;DHT22;57623;53.608;10.004;2022-09-09T07:07:50;15.20;99.90
1578;DHT22;57623;53.608;10.004;2022-09-09T07:10:40;15.20;99.90
1578;DHT22;57623;53.608;10.004;2022-09-09T07:13:33;15.20;99.90
1578;DHT22;57623;53.608;10.004;2022-09-09T07:16:22;15.30;99.90
1578;DHT22;57623;53.608;10.004;2022-09-09T07:19:12;15.40;99.90
1578;DHT22;57623;53.608;10.004;2022-09-09T07:22:01;15.40;99.90
1578;DHT22;57623;53.608;10.004;2022-09-09T07:24:50;15.50;99.90
1578;DHT22;57623;53.608;10.004;2022-09-09T07:27:40;15.60;99.90
1578;DHT22;57623;53.608;10.004;2022-09-09T07:30:29;15.70;99.90
1578;DHT22;57623;53.608;10.004;2022-09-09T07:33:17;15.70;99.90
1578;DHT22;57623;53.608;10.004;2022-09-09T07:36:12;15.80;99.90
1578;DHT22;57623;53.608;10.004;2022-09-09T07:39:03;15.80;99.90
1578;DHT22;57623;53.608;10.004;2022-09-09T07:41:52;15.80;99.90
1578;DHT22;57623;53.608;10.004;2022-09-09T07:44:41;15.90;99.90
1578;DHT22;57623;53.608;10.004;2022-09-09T07:47:30;15.90;99.90
1578;DHT22;57623;53.608;10.004;2022-09-09T07:50:18;16.00;99.90
1578;DHT22;57623;53.608;10.004;2022-09-09T07:53:07;16.00;99.90
1578;DHT22;57623;53.608;10.004;2022-09-09T07:55:55;16.10;99.90
1578;DHT22;57623;53.608;10.004;2022-09-09T07:58:45;16.10;99.90
1578;DHT22;57623;53.608;10.004;2022-09-09T08:01:36;16.20;99.90
1578;DHT22;57623;53.608;10.004;2022-09-09T08:04:36;16.20;99.90
1578;DHT22;57623;53.608;10.004;2022-09-09T08:07:25;16.30;99.90
1578;DHT22;57623;53.608;10.004;2022-09-09T08:10:13;16.30;99.90
1578;DHT22;57623;53.608;10.004;2022-09-09T08:13:02;16.40;99.90
1578;DHT22;57623;53.608;10.004;2022-09-09T08:16:06;16.40;99.90
1578;DHT22;57623;53.608;10.004;2022-09-09T08:18:55;16.50;99.90
1578;DHT22;57623;53.608;10.004;2022-09-09T08:21:45;16.50;99.90
1578;DHT22;57623;53.608;10.004;2022-09-09T08:24:35;16.60;99.90
1578;DHT22;57623;53.608;10.004;2022-09-09T08:27:23;16.70;99.90
1578;DHT22;57623;53.608;10.004;2022-09-09T08:30:15;16.70;99.90
1578;DHT22;57623;53.608;10.004;2022-09-09T08:33:03;16.80;99.90
1578;DHT22;57623;53.608;10.004;2022-09-09T08:35:52;16.80;99.90
1578;DHT22;57623;53.608;10.004;2022-09-09T08:38:42;16.90;99.90
1578;DHT22;57623;53.608;10.004;2022-09-09T08:41:42;16.90;99.90
1578;DHT22;57623;53.608;10.004;2022-09-09T08:44:57;17.00;99.90
1578;DHT22;57623;53.608;10.004;2022-09-09T08:48:00;17.00;99.90
1578;DHT22;57623;53.608;10.004;2022-09-09T08:50:52;17.00;99.90
1578;DHT22;57623;53.608;10.004;2022-09-09T08:53:45;17.00;99.90
1578;DHT22;57623;53.608;10.004;2022-09-09T08:56:35;17.10;99.90
1578;DHT22;57623;53.608;10.004;2022-09-09T08:59:23;17.10;99.90
1578;DHT22;57623;53.608;10.004;2022-09-09T09:02:15;17.10;99.90
1578;DHT22;57623;53.608;10.004;2022-09-09T09:05:12;17.20;99.90
1578;DHT22;57623;53.608;10.004;2022-09-09T09:08:12;17.10;99.90
1578;DHT22;57623;53.608;10.004;2022-09-09T09:11:04;17.20;99.90
1578;DHT22;57623;53.608;10.004;2022-09-09T09:13:56;17.30;99.90
1578;DHT22;57623;53.608;10.004;2022-09-09T09:16:52;17.30;99.90
1578;DHT22;57623;53.608;10.004;2022-09-09T09:19:41;17.30;99.90
1578;DHT22;57623;53.608;10.004;2022-09-09T09:22:35;17.40;99.90
1578;DHT22;57623;53.608;10.004;2022-09-09T09:25:31;17.40;99.90
1578;DHT22;57623;53.608;10.004;2022-09-09T09:28:24;17.50;99.90
1578;DHT22;57623;53.608;10.004;2022-09-09T09:31:12;17.60;99.90
1578;DHT22;57623;53.608;10.004;2022-09-09T09:34:01;17.70;99.90
1578;DHT22;57623;53.608;10.004;2022-09-09T09:36:54;17.80;99.90
1578;DHT22;57623;53.608;10.004;2022-09-09T09:39:42;17.90;99.90
1578;DHT22;57623;53.608;10.004;2022-09-09T09:42:53;17.90;99.90
1578;DHT22;57623;53.608;10.004;2022-09-09T09:45:44;18.10;99.90
1578;DHT22;57623;53.608;10.004;2022-09-09T09:48:59;18.10;99.90
1578;DHT22;57623;53.608;10.004;2022-09-09T09:51:48;18.20;99.90
1578;DHT22;57623;53.608;10.004;2022-09-09T09:54:39;18.20;99.90
1578;DHT22;57623;53.608;10.004;2022-09-09T09:57:31;18.30;99.90
1578;DHT22;57623;53.608;10.004;2022-09-09T10:00:22;18.30;99.90
1578;DHT22;57623;53.608;10.004;2022-09-09T10:03:21;18.40;99.90
1578;DHT22;57623;53.608;10.004;2022-09-09T10:06:09;18.50;99.90
1578;DHT22;57623;53.608;10.004;2022-09-09T10:08:58;18.50;99.90
1578;DHT22;57623;53.608;10.004;2022-09-09T10:11:54;18.60;99.90
1578;DHT22;57623;53.608;10.004;2022-09-09T10:14:49;18.60;99.90
1578;DHT22;57623;53.608;10.004;2022-09-09T10:17:47;18.70;99.90
1578;DHT22;57623;53.608;10.004;2022-09-09T10:20:49;18.80;99.90
1578;DHT22;57623;53.608;10.004;2022-09-09T10:23:52;18.90;99.90
1578;DHT22;57623;53.608;10.004;2022-09-09T10:26:53;19.10;99.90
1578;DHT22;57623;53.608;10.004;2022-09-09T10:30:04;19.10;99.90
1578;DHT22;57623;53.608;10.004;2022-09-09T10:33:03;19.10;99.90
1578;DHT22;57623;53.608;10.004;2022-09-09T10:36:00;19.10;99.90
1578;DHT22;57623;53.608;10.004;2022-09-09T10:38:56;19.20;99.90
1578;DHT22;57623;53.608;10.004;2022-09-09T10:41:56;19.30;99.90
1578;DHT22;57623;53.608;10.004;2022-09-09T10:44:57;19.30;99.90
1578;DHT22;57623;53.608;10.004;2022-09-09T10:48:04;19.30;99.90
1578;DHT22;57623;53.608;10.004;2022-09-09T10:51:03;19.40;99.90
1578;DHT22;57623;53.608;10.004;2022-09-09T10:54:11;19.50;99.90
1578;DHT22;57623;53.608;10.004;2022-09-09T10:57:05;19.60;99.90
1578;DHT22;57623;53.608;10.004;2022-09-09T10:59:59;19.70;99.90
1578;DHT22;57623;53.608;10.004;2022-09-09T11:02:55;19.80;99.90
1578;DHT22;57623;53.608;10.004;2022-09-09T11:05:45;19.90;99.90
1578;DHT22;57623;53.608;10.004;2022-09-09T11:08:39;19.90;99.90
1578;DHT22;57623;53.608;10.004;2022-09-09T11:11:32;19.90;99.90
1578;DHT22;57623;53.608;10.004;2022-09-09T11:14:27;20.00;99.90
1578;DHT22;57623;53.608;10.004;2022-09-09T11:17:25;20.10;99.90
1578;DHT22;57623;53.608;10.004;2022-09-09T11:20:15;20.20;99.90
1578;DHT22;57623;53.608;10.004;2022-09-09T11:23:08;20.20;99.90
1578;DHT22;57623;53.608;10.004;2022-09-09T11:26:01;20.40;99.90
1578;DHT22;57623;53.608;10.004;2022-09-09T11:29:04;20.40;99.90
1578;DHT22;57623;53.608;10.004;2022-09-09T11:32:04;20.50;99.90
1578;DHT22;57623;53.608;10.004;2022-09-09T11:35:17;20.70;99.90
1578;DHT22;57623;53.608;10.004;2022-09-09T11:38:16;20.90;99.90
1578;DHT22;57623;53.608;10.004;2022-09-09T11:41:08;21.00;99.90
1578;DHT22;57623;53.608;10.004;2022-09-09T11:43:57;21.10;99.90
1578;DHT22;57623;53.608;10.004;2022-09-09T11:46:47;21.10;99.90
1578;DHT22;57623;53.608;10.004;2022-09-09T11:49:41;21.10;99.90
1578;DHT22;57623;53.608;10.004;2022-09-09T11:52:37;21.10;99.90
1578;DHT22;57623;53.608;10.004;2022-09-09T11:55:27;21.00;99.90
1578;DHT22;57623;53.608;10.004;2022-09-09T11:58:21;20.90;99.90
1578;DHT22;57623;53.608;10.004;2022-09-09T12:01:15;20.80;99.90
1578;DHT22;57623;53.608;10.004;2022-09-09T12:04:29;20.70;99.90
1578;DHT22;57623;53.608;10.004;2022-09-09T12:07:32;20.70;99.90
1578;DHT22;57623;53.608;10.004;2022-09-09T12:10:26;20.70;99.90
1578;DHT22;57623;53.608;10.004;2022-09-09T12:13:18;20.70;99.90
1578;DHT22;57623;53.608;10.004;2022-09-09T12:16:27;20.70;99.90
1578;DHT22;57623;53.608;10.004;2022-09-09T12:19:19;20.60;99.90
1578;DHT22;57623;53.608;10.004;2022-09-09T12:22:23;20.60;99.90
1578;DHT22;57623;53.608;10.004;2022-09-09T12:25:22;20.50;99.90
1578;DHT22;57623;53.608;10.004;2022-09-09T12:28:22;20.50;99.90
1578;DHT22;57623;53.608;10.004;2022-09-09T12:31:16;20.50;99.90
1578;DHT22;57623;53.608;10.004;2022-09-09T12:34:15;20.40;99.90
1578;DHT22;57623;53.608;10.004;2022-09-09T12:37:10;20.40;99.90
1578;DHT22;57623;53.608;10.004;2022-09-09T12:40:02;20.50;99.90
1578;DHT22;57623;53.608;10.004;2022-09-09T12:42:51;20.60;99.90
1578;DHT22;57623;53.608;10.004;2022-09-09T12:45:42;20.70;99.90
1578;DHT22;57623;53.608;10.004;2022-09-09T12:48:35;20.70;99.90
1578;DHT22;57623;53.608;10.004;2022-09-09T12:51:27;20.70;99.90
1578;DHT22;57623;53.608;10.004;2022-09-09T12:54:16;20.70;99.90
1578;DHT22;57623;53.608;10.004;2022-09-09T12:57:05;20.60;99.90
1578;DHT22;57623;53.608;10.004;2022-09-09T13:00:05;20.60;99.90
1578;DHT22;57623;53.608;10.004;2022-09-09T13:02:57;20.50;99.90
1578;DHT22;57623;53.608;10.004;2022-09-09T13:05:48;20.40;99.90
1578;DHT22;57623;53.608;10.004;2022-09-09T13:08:37;20.40;99.90
1578;DHT22;57623;53.608;10.004;2022-09-09T13:11:29;20.30;99.90
1578;DHT22;57623;53.608;10.004;2022-09-09T13:14:19;20.20;99.90
1578;DHT22;57623;53.608;10.004;2022-09-09T13:17:19;20.10;99.90
1578;DHT22;57623;53.608;10.004;2022-09-09T13:20:16;20.10;99.90
1578;DHT22;57623;53.608;10.004;2022-09-09T13:23:05;20.10;99.90
1578;DHT22;57623;53.608;10.004;2022-09-09T13:25:55;20.00;99.90
1578;DHT22;57623;53.608;10.004;2022-09-09T13:28:45;19.90;99.90
1578;DHT22;57623;53.608;10.004;2022-09-09T13:31:36;19.80;99.90
1578;DHT22;57623;53.608;10.004;2022-09-09T13:34:27;19.80;99.90
1578;DHT22;57623;53.608;10.004;2022-09-09T13:37:22;19.70;99.90
1578;DHT22;57623;53.608;10.004;2022-09-09T13:40:17;19.60;99.90
1578;DHT22;57623;53.608;10.004;2022-09-09T13:43:16;19.50;99.90
1578;DHT22;57623;53.608;10.004;2022-09-09T13:46:24;19.40;99.90
1578;DHT22;57623;53.608;10.004;2022-09-09T13:49:21;19.30;99.90
1578;DHT22;57623;53.608;10.004;2022-09-09T13:52:11;19.20;99.90
1578;DHT22;57623;53.608;10.004;2022-09-09T13:55:01;19.10;99.90
1578;DHT22;57623;53.608;10.004;2022-09-09T13:57:57;19.00;99.90
1578;DHT22;57623;53.608;10.004;2022-09-09T14:00:47;18.80;99.90
1578;DHT22;57623;53.608;10.004;2022-09-09T14:03:36;18.70;99.90
1578;DHT22;57623;53.608;10.004;2022-09-09T14:06:26;18.70;99.90
1578;DHT22;57623;53.608;10.004;2022-09-09T14:09:18;18.60;99.90
1578;DHT22;57623;53.608;10.004;2022-09-09T14:12:11;18.60;99.90
1578;DHT22;57623;53.608;10.004;2022-09-09T14:14:59;18.60;99.90
1578;DHT22;57623;53.608;10.004;2022-09-09T14:17:48;18.50;99.90
1578;DHT22;57623;53.608;10.004;2022-09-09T14:20:36;18.50;99.90
1578;DHT22;57623;53.608;10.004;2022-09-09T14:23:25;18.40;99.90
1578;DHT22;57623;53.608;10.004;2022-09-09T14:26:13;18.40;99.90
1578;DHT22;57623;53.608;10.004;2022-09-09T14:29:03;18.30;99.90
1578;DHT22;57623;53.608;10.004;2022-09-09T14:31:51;18.30;99.90
1578;DHT22;57623;53.608;10.004;2022-09-09T14:34:39;18.30;99.90
1578;DHT22;57623;53.608;10.004;2022-09-09T14:37:29;18.30;99.90
1578;DHT22;57623;53.608;10.004;2022-09-09T14:40:18;18.30;99.90
1578;DHT22;57623;53.608;10.004;2022-09-09T14:43:06;18.10;99.90
1578;DHT22;57623;53.608;10.004;2022-09-09T14:45:55;18.10;99.90
1578;DHT22;57623;53.608;10.004;2022-09-09T14:48:49;18.10;99.90
1578;DHT22;57623;53.608;10.004;2022-09-09T14:51:37;18.10;99.90
1578;DHT22;57623;53.608;10.004;2022-09-09T14:54:25;18.00;99.90
1578;DHT22;57623;53.608;10.004;2022-09-09T14:57:13;18.00;99.90
1578;DHT22;57623;53.608;10.004;2022-09-09T15:00:04;18.00;99.90
1578;DHT22;57623;53.608;10.004;2022-09-09T15:02:54;17.90;99.90
1578;DHT22;57623;53.608;10.004;2022-09-09T15:05:43;17.90;99.90
1578;DHT22;57623;53.608;10.004;2022-09-09T15:08:31;17.80;99.90
1578;DHT22;57623;53.608;10.004;2022-09-09T15:11:20;17.80;99.90
1578;DHT22;57623;53.608;10.004;2022-09-09T15:14:11;17.80;99.90
1578;DHT22;57623;53.608;10.004;2022-09-09T15:17:09;17.80;99.90
1578;DHT22;57623;53.608;10.004;2022-09-09T15:20:02;17.70;99.90
1578;DHT22;57623;53.608;10.004;2022-09-09T15:22:50;17.70;99.90
1578;DHT22;57623;53.608;10.004;2022-09-09T15:25:50;17.70;99.90
1578;DHT22;57623;53.608;10.004;2022-09-09T15:28:40;17.60;99.90
1578;DHT22;57623;53.608;10.004;2022-09-09T15:31:31;17.60;99.90
1578;DHT22;57623;53.608;10.004;2022-09-09T15:34:19;17.60;99.90
1578;DHT22;57623;53.608;10.004;2022-09-09T15:37:11;17.60;99.90
1578;DHT22;57623;53.608;10.004;2022-09-09T15:40:00;17.60;99.90
1578;DHT22;57623;53.608;10.004;2022-09-09T15:42:48;17.60;99.90
1578;DHT22;57623;53.608;10.004;2022-09-09T15:45:37;17.60;99.90
1578;DHT22;57623;53.608;10.004;2022-09-09T15:48:30;17.60;99.90
1578;DHT22;57623;53.608;10.004;2022-09-09T15:51:19;17.60;99.90
1578;DHT22;57623;53.608;10.004;2022-09-09T15:54:32;17.60;99.90
1578;DHT22;57623;53.608;10.004;2022-09-09T15:57:20;17.70;99.90
1578;DHT22;57623;53.608;10.004;2022-09-09T16:00:09;17.70;99.90
1578;DHT22;57623;53.608;10.004;2022-09-09T16:02:59;17.70;99.90
1578;DHT22;57623;53.608;10.004;2022-09-09T16:05:51;17.70;99.90
1578;DHT22;57623;53.608;10.004;2022-09-09T16:08:42;17.70;99.90
1578;DHT22;57623;53.608;10.004;2022-09-09T16:11:34;17.70;99.90
1578;DHT22;57623;53.608;10.004;2022-09-09T16:14:22;17.80;99.90
1578;DHT22;57623;53.608;10.004;2022-09-09T16:17:11;17.80;99.90
1578;DHT22;57623;53.608;10.004;2022-09-09T16:20:01;17.80;99.90
1578;DHT22;57623;53.608;10.004;2022-09-09T16:22:50;17.80;99.90
1578;DHT22;57623;53.608;10.004;2022-09-09T16:25:38;17.80;99.90
1578;DHT22;57623;53.608;10.004;2022-09-09T16:28:29;17.90;99.90
1578;DHT22;57623;53.608;10.004;2022-09-09T16:31:20;17.90;99.90
1578;DHT22;57623;53.608;10.004;2022-09-09T16:34:09;17.90;99.90
1578;DHT22;57623;53.608;10.004;2022-09-09T16:36:57;18.00;99.90
1578;DHT22;57623;53.608;10.004;2022-09-09T16:39:45;18.00;99.90
1578;DHT22;57623;53.608;10.004;2022-09-09T16:42:33;18.00;99.90
1578;DHT22;57623;53.608;10.004;2022-09-09T16:45:27;18.00;99.90
1578;DHT22;57623;53.608;10.004;2022-09-09T16:48:16;18.00;99.90
1578;DHT22;57623;53.608;10.004;2022-09-09T16:51:05;18.00;99.90
1578;DHT22;57623;53.608;10.004;2022-09-09T16:53:58;18.00;99.90
1578;DHT22;57623;53.608;10.004;2022-09-09T16:56:48;18.00;99.90
1578;DHT22;57623;53.608;10.004;2022-09-09T16:59:40;17.90;99.90
1578;DHT22;57623;53.608;10.004;2022-09-09T17:02:30;17.90;99.90
1578;DHT22;57623;53.608;10.004;2022-09-09T17:05:20;17.90;99.90
1578;DHT22;57623;53.608;10.004;2022-09-09T17:08:12;17.90;99.90
1578;DHT22;57623;53.608;10.004;2022-09-09T17:11:01;17.90;99.90
1578;DHT22;57623;53.608;10.004;2022-09-09T17:13:52;17.80;99.90
1578;DHT22;57623;53.608;10.004;2022-09-09T17:16:41;17.80;99.90
1578;DHT22;57623;53.608;10.004;2022-09-09T17:19:31;17.80;99.90
1578;DHT22;57623;53.608;10.004;2022-09-09T17:22:22;17.80;99.90
1578;DHT22;57623;53.608;10.004;2022-09-09T17:25:13;17.70;99.90
1578;DHT22;57623;53.608;10.004;2022-09-09T17:28:04;17.70;99.90
1578;DHT22;57623;53.608;10.004;2022-09-09T17:30:57;17.70;99.90
1578;DHT22;57623;53.608;10.004;2022-09-09T17:33:49;17.70;99.90
1578;DHT22;57623;53.608;10.004;2022-09-09T17:36:43;17.60;99.90
1578;DHT22;57623;53.608;10.004;2022-09-09T17:39:31;17.50;99.90
1578;DHT22;57623;53.608;10.004;2022-09-09T17:42:19;17.50;99.90
1578;DHT22;57623;53.608;10.004;2022-09-09T17:45:09;17.50;99.90
1578;DHT22;57623;53.608;10.004;2022-09-09T17:47:58;17.40;99.90
1578;DHT22;57623;53.608;10.004;2022-09-09T17:50:46;17.40;99.90
1578;DHT22;57623;53.608;10.004;2022-09-09T17:53:38;17.30;99.90
1578;DHT22;57623;53.608;10.004;2022-09-09T17:56:28;17.30;99.90
1578;DHT22;57623;53.608;10.004;2022-09-09T17:59:21;17.30;99.90
1578;DHT22;57623;53.608;10.004;2022-09-09T18:02:11;17.20;99.90
1578;DHT22;57623;53.608;10.004;2022-09-09T18:05:02;17.20;99.90
1578;DHT22;57623;53.608;10.004;2022-09-09T18:07:50;17.10;99.90
1578;DHT22;57623;53.608;10.004;2022-09-09T18:10:40;17.10;99.90
1578;DHT22;57623;53.608;10.004;2022-09-09T18:13:35;17.00;99.90
1578;DHT22;57623;53.608;10.004;2022-09-09T18:16:24;17.00;99.90
1578;DHT22;57623;53.608;10.004;2022-09-09T18:19:15;16.90;99.90
1578;DHT22;57623;53.608;10.004;2022-09-09T18:22:06;17.00;99.90
1578;DHT22;57623;53.608;10.004;2022-09-09T18:24:54;16.90;99.90
1578;DHT22;57623;53.608;10.004;2022-09-09T18:27:44;16.90;99.90
1578;DHT22;57623;53.608;10.004;2022-09-09T18:30:32;16.90;99.90
1578;DHT22;57623;53.608;10.004;2022-09-09T18:33:21;17.00;99.90
1578;DHT22;57623;53.608;10.004;2022-09-09T18:36:10;16.90;99.90
1578;DHT22;57623;53.608;10.004;2022-09-09T18:39:03;16.80;99.90
1578;DHT22;57623;53.608;10.004;2022-09-09T18:41:56;16.80;99.90
1578;DHT22;57623;53.608;10.004;2022-09-09T18:44:47;16.80;99.90
1578;DHT22;57623;53.608;10.004;2022-09-09T18:47:35;16.70;99.90
1578;DHT22;57623;53.608;10.004;2022-09-09T18:50:24;16.70;99.90
1578;DHT22;57623;53.608;10.004;2022-09-09T18:53:12;16.70;99.90
1578;DHT22;57623;53.608;10.004;2022-09-09T18:56:03;16.70;99.90